sensor_id;sensor_type;location;lat;lon;timestamp;pressure;altitude;pressure_sealevel;temperature;humidity
55755;BME280;41674;52.290;-1.474;2023-10-31T00:04:16;99152.98;;;9.00;64.09
55755;BME280;41674;52.290;-1.474;2023-10-31T00:05:21;99154.98;;;9.39;61.20
55755;BME280;41674;52.290;-1.474;2023-10-31T00:07:34;99159.22;;;10.03;60.04
55755;BME280;41674;52.290;-1.474;2023-10-31T00:12:30;99160.10;;;9.14;63.67
55755;BME280;41674;52.290;-1.474;2023-10-31T00:14:49;99162.95;;;8.98;63.74
55755;BME280;41674;52.290;-1.474;2023-10-31T00:17:20;99162.28;;;8.59;64.43
55755;BME280;41674;52.290;-1.474;2023-10-31T00:19:49;99160.59;;;8.50;66.04
55755;BME280;41674;52.290;-1.474;2023-10-31T00:22:28;99161.89;;;8.60;66.66
55755;BME280;41674;52.290;-1.474;2023-10-31T00:27:20;99165.02;;;8.70;64.80
55755;BME280;41674;52.290;-1.474;2023-10-31T00:29:52;99163.05;;;8.46;65.03
55755;BME280;41674;52.290;-1.474;2023-10-31T00:37:18;99164.17;;;9.34;62.61
55755;BME280;41674;52.290;-1.474;2023-10-31T00:39:59;99163.62;;;8.61;63.71
55755;BME280;41674;52.290;-1.474;2023-10-31T00:47:32;99157.11;;;9.24;61.60
55755;BME280;41674;52.290;-1.474;2023-10-31T00:54:51;99158.20;;;9.62;62.43
55755;BME280;41674;52.290;-1.474;2023-10-31T00:57:17;99157.33;;;9.26;64.17
55755;BME280;41674;52.290;-1.474;2023-10-31T01:32:16;99159.27;;;8.82;69.38
55755;BME280;41674;52.290;-1.474;2023-10-31T02:04:48;99164.37;;;9.44;72.80
55755;BME280;41674;52.290;-1.474;2023-10-31T03:57:02;99131.48;;;10.77;73.73
55755;BME280;41674;52.290;-1.474;2023-10-31T04:21:57;99154.43;;;9.33;76.72
55755;BME280;41674;52.290;-1.474;2023-10-31T04:31:48;99169.48;;;10.00;79.92
55755;BME280;41674;52.290;-1.474;2023-10-31T04:54:33;99174.69;;;10.02;80.52
55755;BME280;41674;52.290;-1.474;2023-10-31T06:09:29;99200.23;;;10.63;81.03
55755;BME280;41674;52.290;-1.474;2023-10-31T06:39:27;99227.31;;;10.66;81.97
55755;BME280;41674;52.290;-1.474;2023-10-31T07:36:41;99271.85;;;12.33;71.72
55755;BME280;41674;52.290;-1.474;2023-10-31T07:56:36;99296.65;;;12.78;71.33
55755;BME280;41674;52.290;-1.474;2023-10-31T07:58:55;99298.59;;;12.91;71.15
55755;BME280;41674;52.290;-1.474;2023-10-31T08:01:29;99298.18;;;12.84;70.88
55755;BME280;41674;52.290;-1.474;2023-10-31T08:03:54;99297.26;;;13.01;71.85
55755;BME280;41674;52.290;-1.474;2023-10-31T08:06:29;99296.16;;;12.76;71.93
55755;BME280;41674;52.290;-1.474;2023-10-31T08:11:36;99300.86;;;12.95;71.20
55755;BME280;41674;52.290;-1.474;2023-10-31T08:19:24;99317.96;;;13.16;70.65
55755;BME280;41674;52.290;-1.474;2023-10-31T08:23:51;99325.49;;;13.63;69.21
55755;BME280;41674;52.290;-1.474;2023-10-31T08:26:24;99325.31;;;13.17;70.32
55755;BME280;41674;52.290;-1.474;2023-10-31T08:28:57;99319.75;;;13.01;69.61
55755;BME280;41674;52.290;-1.474;2023-10-31T08:31:34;99318.51;;;13.45;69.99
55755;BME280;41674;52.290;-1.474;2023-10-31T08:33:52;99314.67;;;13.14;71.37
55755;BME280;41674;52.290;-1.474;2023-10-31T08:38:53;99315.36;;;13.27;69.45
55755;BME280;41674;52.290;-1.474;2023-10-31T09:06:39;99310.05;;;13.79;73.64
55755;BME280;41674;52.290;-1.474;2023-10-31T10:03:44;99339.41;;;15.35;68.43
55755;BME280;41674;52.290;-1.474;2023-10-31T10:06:16;99341.37;;;15.69;68.19
55755;BME280;41674;52.290;-1.474;2023-10-31T10:08:43;99343.00;;;15.56;68.38
55755;BME280;41674;52.290;-1.474;2023-10-31T10:11:16;99343.73;;;15.34;68.95
55755;BME280;41674;52.290;-1.474;2023-10-31T10:13:38;99344.88;;;16.05;67.90
55755;BME280;41674;52.290;-1.474;2023-10-31T10:16:12;99347.51;;;15.95;66.44
55755;BME280;41674;52.290;-1.474;2023-10-31T10:18:46;99344.67;;;16.67;66.09
55755;BME280;41674;52.290;-1.474;2023-10-31T10:21:13;99349.50;;;15.73;67.70
55755;BME280;41674;52.290;-1.474;2023-10-31T10:23:38;99355.31;;;14.88;73.57
55755;BME280;41674;52.290;-1.474;2023-10-31T10:26:11;99356.86;;;15.12;72.63
55755;BME280;41674;52.290;-1.474;2023-10-31T10:28:37;99364.96;;;14.23;74.55
55755;BME280;41674;52.290;-1.474;2023-10-31T10:31:16;99360.33;;;14.36;74.51
55755;BME280;41674;52.290;-1.474;2023-10-31T10:33:40;99363.89;;;14.36;75.80
55755;BME280;41674;52.290;-1.474;2023-10-31T10:36:14;99359.77;;;14.44;74.29
55755;BME280;41674;52.290;-1.474;2023-10-31T10:38:36;99359.26;;;15.20;72.75
55755;BME280;41674;52.290;-1.474;2023-10-31T10:41:14;99362.36;;;14.71;74.06
55755;BME280;41674;52.290;-1.474;2023-10-31T10:43:41;99359.45;;;15.27;72.78
55755;BME280;41674;52.290;-1.474;2023-10-31T10:46:11;99361.74;;;15.24;71.62
55755;BME280;41674;52.290;-1.474;2023-10-31T10:48:40;99358.48;;;15.77;70.72
55755;BME280;41674;52.290;-1.474;2023-10-31T10:51:21;99363.15;;;14.77;73.85
55755;BME280;41674;52.290;-1.474;2023-10-31T10:53:50;99356.69;;;15.17;72.45
55755;BME280;41674;52.290;-1.474;2023-10-31T10:56:13;99356.05;;;15.34;70.83
55755;BME280;41674;52.290;-1.474;2023-10-31T10:59:08;99355.22;;;15.45;70.09
55755;BME280;41674;52.290;-1.474;2023-10-31T11:01:13;99354.96;;;15.70;69.17
55755;BME280;41674;52.290;-1.474;2023-10-31T11:03:41;99358.86;;;15.65;70.04
55755;BME280;41674;52.290;-1.474;2023-10-31T11:06:07;99367.43;;;15.04;72.87
55755;BME280;41674;52.290;-1.474;2023-10-31T11:08:35;99362.99;;;14.67;72.76
55755;BME280;41674;52.290;-1.474;2023-10-31T11:11:10;99372.43;;;14.83;75.04
55755;BME280;41674;52.290;-1.474;2023-10-31T11:13:38;99375.87;;;13.97;76.40
55755;BME280;41674;52.290;-1.474;2023-10-31T11:16:16;99366.85;;;14.92;74.68
55755;BME280;41674;52.290;-1.474;2023-10-31T11:18:37;99371.05;;;14.99;74.28
55755;BME280;41674;52.290;-1.474;2023-10-31T11:21:08;99370.35;;;16.21;71.82
55755;BME280;41674;52.290;-1.474;2023-10-31T11:25:03;99373.63;;;16.35;71.63
55755;BME280;41674;52.290;-1.474;2023-10-31T11:27:27;99371.46;;;16.23;71.95
55755;BME280;41674;52.290;-1.474;2023-10-31T11:32:01;99375.46;;;14.40;75.51
55755;BME280;41674;52.290;-1.474;2023-10-31T11:34:32;99373.88;;;13.90;76.90
55755;BME280;41674;52.290;-1.474;2023-10-31T11:45:17;99373.58;;;14.59;77.44
55755;BME280;41674;52.290;-1.474;2023-10-31T11:48:19;99376.78;;;13.87;79.46
55755;BME280;41674;52.290;-1.474;2023-10-31T11:50:24;99365.28;;;15.29;75.43
55755;BME280;41674;52.290;-1.474;2023-10-31T11:56:23;99367.08;;;15.44;72.95
55755;BME280;41674;52.290;-1.474;2023-10-31T12:14:26;99379.66;;;15.47;73.13
55755;BME280;41674;52.290;-1.474;2023-10-31T12:14:29;99371.95;;;15.10;74.00
55755;BME280;41674;52.290;-1.474;2023-10-31T12:19:26;99375.19;;;14.52;81.62
55755;BME280;41674;52.290;-1.474;2023-10-31T12:21:56;99375.59;;;14.58;83.99
55755;BME280;41674;52.290;-1.474;2023-10-31T12:24:26;99373.78;;;14.16;86.23
55755;BME280;41674;52.290;-1.474;2023-10-31T12:27:00;99373.50;;;14.05;87.88
55755;BME280;41674;52.290;-1.474;2023-10-31T12:29:24;99374.43;;;13.16;90.90
55755;BME280;41674;52.290;-1.474;2023-10-31T12:31:54;99376.32;;;14.31;87.16
55755;BME280;41674;52.290;-1.474;2023-10-31T12:34:25;99380.92;;;13.43;89.54
55755;BME280;41674;52.290;-1.474;2023-10-31T12:36:54;99382.79;;;13.86;88.94
55755;BME280;41674;52.290;-1.474;2023-10-31T12:39:28;99384.60;;;14.42;85.87
55755;BME280;41674;52.290;-1.474;2023-10-31T12:41:57;99386.81;;;14.78;86.04
55755;BME280;41674;52.290;-1.474;2023-10-31T12:44:24;99392.41;;;14.45;86.33
55755;BME280;41674;52.290;-1.474;2023-10-31T12:46:51;99396.68;;;14.03;87.86
55755;BME280;41674;52.290;-1.474;2023-10-31T12:49:23;99397.01;;;14.06;87.10
55755;BME280;41674;52.290;-1.474;2023-10-31T12:54:27;99396.06;;;12.99;93.81
55755;BME280;41674;52.290;-1.474;2023-10-31T12:56:50;99393.89;;;13.38;91.11
55755;BME280;41674;52.290;-1.474;2023-10-31T12:59:24;99396.42;;;13.69;90.78
55755;BME280;41674;52.290;-1.474;2023-10-31T13:01:48;99396.90;;;13.88;91.35
55755;BME280;41674;52.290;-1.474;2023-10-31T13:04:24;99401.32;;;13.24;92.08
55755;BME280;41674;52.290;-1.474;2023-10-31T13:06:55;99398.94;;;12.70;96.31
55755;BME280;41674;52.290;-1.474;2023-10-31T13:09:18;99394.13;;;13.08;97.34
55755;BME280;41674;52.290;-1.474;2023-10-31T13:11:47;99393.27;;;13.15;96.96
55755;BME280;41674;52.290;-1.474;2023-10-31T13:14:14;99390.94;;;13.81;94.26
55755;BME280;41674;52.290;-1.474;2023-10-31T13:16:43;99393.47;;;14.05;92.85
55755;BME280;41674;52.290;-1.474;2023-10-31T13:19:14;99397.27;;;14.42;92.18
55755;BME280;41674;52.290;-1.474;2023-10-31T13:21:43;99397.37;;;14.73;90.62
55755;BME280;41674;52.290;-1.474;2023-10-31T13:24:13;99399.20;;;14.94;89.79
55755;BME280;41674;52.290;-1.474;2023-10-31T13:26:42;99393.26;;;15.30;84.70
55755;BME280;41674;52.290;-1.474;2023-10-31T13:29:11;99387.64;;;16.05;80.34
55755;BME280;41674;52.290;-1.474;2023-10-31T13:31:41;99386.37;;;16.64;78.39
55755;BME280;41674;52.290;-1.474;2023-10-31T13:34:10;99389.98;;;16.38;77.72
55755;BME280;41674;52.290;-1.474;2023-10-31T13:36:40;99389.57;;;16.23;77.49
55755;BME280;41674;52.290;-1.474;2023-10-31T13:39:10;99386.83;;;16.44;75.30
55755;BME280;41674;52.290;-1.474;2023-10-31T13:41:39;99385.00;;;15.95;77.23
55755;BME280;41674;52.290;-1.474;2023-10-31T13:44:08;99383.66;;;15.71;78.53
55755;BME280;41674;52.290;-1.474;2023-10-31T13:46:38;99383.32;;;16.09;76.99
55755;BME280;41674;52.290;-1.474;2023-10-31T13:49:08;99381.43;;;15.68;75.57
55755;BME280;41674;52.290;-1.474;2023-10-31T13:51:37;99388.61;;;15.48;75.81
55755;BME280;41674;52.290;-1.474;2023-10-31T13:54:07;99385.15;;;16.15;73.69
55755;BME280;41674;52.290;-1.474;2023-10-31T13:56:36;99388.14;;;15.73;73.36
55755;BME280;41674;52.290;-1.474;2023-10-31T13:59:06;99390.36;;;15.79;74.96
55755;BME280;41674;52.290;-1.474;2023-10-31T14:01:35;99387.25;;;16.45;73.57
55755;BME280;41674;52.290;-1.474;2023-10-31T14:04:06;99392.25;;;15.20;75.76
55755;BME280;41674;52.290;-1.474;2023-10-31T14:06:34;99388.12;;;16.18;73.61
55755;BME280;41674;52.290;-1.474;2023-10-31T14:09:04;99384.04;;;17.06;75.49
55755;BME280;41674;52.290;-1.474;2023-10-31T14:11:34;99377.73;;;18.40;72.59
55755;BME280;41674;52.290;-1.474;2023-10-31T14:14:03;99378.84;;;18.68;63.68
55755;BME280;41674;52.290;-1.474;2023-10-31T14:16:32;99374.34;;;19.86;60.65
55755;BME280;41674;52.290;-1.474;2023-10-31T14:19:02;99372.98;;;20.16;56.45
55755;BME280;41674;52.290;-1.474;2023-10-31T14:21:31;99374.08;;;20.01;58.86
55755;BME280;41674;52.290;-1.474;2023-10-31T14:24:01;99376.57;;;19.95;56.99
55755;BME280;41674;52.290;-1.474;2023-10-31T14:26:33;99377.67;;;19.76;56.67
55755;BME280;41674;52.290;-1.474;2023-10-31T14:29:00;99378.08;;;18.79;57.68
55755;BME280;41674;52.290;-1.474;2023-10-31T14:31:30;99377.74;;;18.91;60.07
55755;BME280;41674;52.290;-1.474;2023-10-31T14:33:59;99378.48;;;18.37;58.13
55755;BME280;41674;52.290;-1.474;2023-10-31T14:36:33;99375.54;;;18.47;60.08
55755;BME280;41674;52.290;-1.474;2023-10-31T14:38:58;99379.97;;;18.10;59.04
55755;BME280;41674;52.290;-1.474;2023-10-31T14:41:28;99383.28;;;17.49;59.49
55755;BME280;41674;52.290;-1.474;2023-10-31T14:43:57;99378.93;;;19.11;57.17
55755;BME280;41674;52.290;-1.474;2023-10-31T14:46:26;99377.11;;;18.47;55.71
55755;BME280;41674;52.290;-1.474;2023-10-31T14:48:56;99382.21;;;18.31;56.56
55755;BME280;41674;52.290;-1.474;2023-10-31T14:51:25;99380.07;;;18.66;56.73
55755;BME280;41674;52.290;-1.474;2023-10-31T14:54:00;99375.77;;;20.35;53.31
55755;BME280;41674;52.290;-1.474;2023-10-31T14:56:24;99374.69;;;20.54;50.43
55755;BME280;41674;52.290;-1.474;2023-10-31T14:58:59;99377.72;;;21.04;48.74
55755;BME280;41674;52.290;-1.474;2023-10-31T15:01:24;99376.67;;;21.34;47.87
55755;BME280;41674;52.290;-1.474;2023-10-31T15:03:53;99377.40;;;21.09;48.38
55755;BME280;41674;52.290;-1.474;2023-10-31T15:06:23;99378.87;;;21.15;48.69
55755;BME280;41674;52.290;-1.474;2023-10-31T15:08:52;99382.07;;;21.44;49.93
55755;BME280;41674;52.290;-1.474;2023-10-31T15:11:21;99382.33;;;22.06;49.29
55755;BME280;41674;52.290;-1.474;2023-10-31T15:13:51;99382.01;;;22.18;48.96
55755;BME280;41674;52.290;-1.474;2023-10-31T15:16:20;99387.38;;;21.50;47.84
55755;BME280;41674;52.290;-1.474;2023-10-31T15:18:50;99387.92;;;21.45;46.26
55755;BME280;41674;52.290;-1.474;2023-10-31T15:21:20;99385.58;;;20.76;46.84
55755;BME280;41674;52.290;-1.474;2023-10-31T15:23:49;99391.16;;;19.93;49.17
55755;BME280;41674;52.290;-1.474;2023-10-31T15:26:23;99395.37;;;17.91;52.96
55755;BME280;41674;52.290;-1.474;2023-10-31T15:28:48;99394.51;;;17.86;55.45
55755;BME280;41674;52.290;-1.474;2023-10-31T15:31:17;99396.39;;;17.73;56.66
55755;BME280;41674;52.290;-1.474;2023-10-31T15:33:47;99395.27;;;18.41;56.98
55755;BME280;41674;52.290;-1.474;2023-10-31T15:36:16;99394.26;;;18.56;57.54
55755;BME280;41674;52.290;-1.474;2023-10-31T15:38:46;99393.51;;;18.24;58.04
55755;BME280;41674;52.290;-1.474;2023-10-31T15:41:16;99396.69;;;18.31;58.71
55755;BME280;41674;52.290;-1.474;2023-10-31T15:43:45;99400.86;;;18.04;59.11
55755;BME280;41674;52.290;-1.474;2023-10-31T15:46:14;99401.42;;;17.76;59.12
55755;BME280;41674;52.290;-1.474;2023-10-31T15:48:44;99404.01;;;17.28;60.59
55755;BME280;41674;52.290;-1.474;2023-10-31T15:51:13;99403.95;;;17.54;61.16
55755;BME280;41674;52.290;-1.474;2023-10-31T15:53:43;99404.72;;;17.01;64.02
55755;BME280;41674;52.290;-1.474;2023-10-31T15:56:12;99409.07;;;16.61;63.84
55755;BME280;41674;52.290;-1.474;2023-10-31T15:58:42;99414.38;;;16.65;64.30
55755;BME280;41674;52.290;-1.474;2023-10-31T16:01:11;99412.97;;;16.57;64.28
55755;BME280;41674;52.290;-1.474;2023-10-31T16:03:42;99411.11;;;16.13;64.79
55755;BME280;41674;52.290;-1.474;2023-10-31T16:06:10;99419.10;;;15.79;66.59
55755;BME280;41674;52.290;-1.474;2023-10-31T16:08:40;99417.23;;;14.82;69.92
55755;BME280;41674;52.290;-1.474;2023-10-31T16:11:10;99410.17;;;15.98;66.48
55755;BME280;41674;52.290;-1.474;2023-10-31T16:13:40;99415.46;;;15.13;68.51
55755;BME280;41674;52.290;-1.474;2023-10-31T16:16:10;99415.19;;;15.54;66.34
55755;BME280;41674;52.290;-1.474;2023-10-31T16:18:38;99415.31;;;15.39;66.67
55755;BME280;41674;52.290;-1.474;2023-10-31T16:21:16;99415.04;;;15.71;66.13
55755;BME280;41674;52.290;-1.474;2023-10-31T16:23:37;99422.44;;;15.46;67.11
55755;BME280;41674;52.290;-1.474;2023-10-31T16:26:07;99423.62;;;15.24;68.15
55755;BME280;41674;52.290;-1.474;2023-10-31T16:28:36;99424.49;;;15.07;68.66
55755;BME280;41674;52.290;-1.474;2023-10-31T16:31:06;99428.24;;;15.08;68.92
55755;BME280;41674;52.290;-1.474;2023-10-31T16:33:36;99430.79;;;14.90;69.60
55755;BME280;41674;52.290;-1.474;2023-10-31T16:36:06;99431.38;;;14.59;69.38
55755;BME280;41674;52.290;-1.474;2023-10-31T16:38:35;99430.51;;;13.98;71.04
55755;BME280;41674;52.290;-1.474;2023-10-31T16:41:05;99428.33;;;14.77;70.43
55755;BME280;41674;52.290;-1.474;2023-10-31T16:43:34;99427.11;;;14.83;70.15
55755;BME280;41674;52.290;-1.474;2023-10-31T16:46:03;99427.50;;;14.86;71.36
55755;BME280;41674;52.290;-1.474;2023-10-31T16:48:33;99425.65;;;14.71;70.96
55755;BME280;41674;52.290;-1.474;2023-10-31T16:51:02;99423.84;;;14.10;72.48
55755;BME280;41674;52.290;-1.474;2023-10-31T16:53:32;99426.52;;;14.22;72.09
55755;BME280;41674;52.290;-1.474;2023-10-31T16:56:01;99428.81;;;14.46;71.84
55755;BME280;41674;52.290;-1.474;2023-10-31T16:58:31;99431.26;;;13.70;74.16
55755;BME280;41674;52.290;-1.474;2023-10-31T17:01:00;99429.40;;;13.75;74.38
55755;BME280;41674;52.290;-1.474;2023-10-31T17:03:30;99425.12;;;13.97;73.85
55755;BME280;41674;52.290;-1.474;2023-10-31T17:05:59;99424.78;;;13.90;73.61
55755;BME280;41674;52.290;-1.474;2023-10-31T17:08:30;99427.90;;;13.19;76.96
55755;BME280;41674;52.290;-1.474;2023-10-31T17:11:00;99421.55;;;13.04;76.12
55755;BME280;41674;52.290;-1.474;2023-10-31T17:13:28;99419.91;;;13.74;74.29
55755;BME280;41674;52.290;-1.474;2023-10-31T17:15:59;99421.04;;;13.80;72.57
55755;BME280;41674;52.290;-1.474;2023-10-31T17:18:27;99418.89;;;14.28;71.30
55755;BME280;41674;52.290;-1.474;2023-10-31T17:20:57;99419.40;;;14.58;70.71
55755;BME280;41674;52.290;-1.474;2023-10-31T17:23:26;99420.22;;;14.03;72.19
55755;BME280;41674;52.290;-1.474;2023-10-31T17:25:56;99420.41;;;14.06;72.49
55755;BME280;41674;52.290;-1.474;2023-10-31T17:28:25;99426.25;;;13.68;73.88
55755;BME280;41674;52.290;-1.474;2023-10-31T17:30:55;99428.57;;;13.19;75.22
55755;BME280;41674;52.290;-1.474;2023-10-31T17:33:25;99431.76;;;13.60;74.46
55755;BME280;41674;52.290;-1.474;2023-10-31T17:35:53;99438.29;;;13.48;76.60
55755;BME280;41674;52.290;-1.474;2023-10-31T17:38:23;99436.40;;;13.92;74.99
55755;BME280;41674;52.290;-1.474;2023-10-31T17:40:53;99439.86;;;12.55;78.12
55755;BME280;41674;52.290;-1.474;2023-10-31T17:43:22;99443.27;;;13.06;76.21
55755;BME280;41674;52.290;-1.474;2023-10-31T17:45:52;99445.87;;;13.47;76.01
55755;BME280;41674;52.290;-1.474;2023-10-31T17:48:21;99434.59;;;13.68;75.39
55755;BME280;41674;52.290;-1.474;2023-10-31T17:50:51;99435.68;;;13.63;75.10
55755;BME280;41674;52.290;-1.474;2023-10-31T17:53:20;99435.17;;;12.94;75.23
55755;BME280;41674;52.290;-1.474;2023-10-31T17:55:50;99432.14;;;13.03;76.21
55755;BME280;41674;52.290;-1.474;2023-10-31T17:58:25;99429.61;;;12.65;76.28
55755;BME280;41674;52.290;-1.474;2023-10-31T18:00:49;99433.19;;;12.87;74.80
55755;BME280;41674;52.290;-1.474;2023-10-31T18:03:19;99429.20;;;13.53;74.42
55755;BME280;41674;52.290;-1.474;2023-10-31T18:05:47;99430.55;;;13.37;74.82
55755;BME280;41674;52.290;-1.474;2023-10-31T18:08:17;99428.62;;;13.30;74.52
55755;BME280;41674;52.290;-1.474;2023-10-31T18:10:47;99422.53;;;12.99;75.28
55755;BME280;41674;52.290;-1.474;2023-10-31T18:13:16;99419.98;;;12.82;75.62
55755;BME280;41674;52.290;-1.474;2023-10-31T18:15:46;99419.97;;;13.37;74.74
55755;BME280;41674;52.290;-1.474;2023-10-31T18:18:15;99418.62;;;13.25;74.89
55755;BME280;41674;52.290;-1.474;2023-10-31T18:20:45;99419.05;;;13.20;74.95
55755;BME280;41674;52.290;-1.474;2023-10-31T18:23:14;99415.82;;;13.31;75.74
55755;BME280;41674;52.290;-1.474;2023-10-31T18:25:44;99416.92;;;13.10;75.26
55755;BME280;41674;52.290;-1.474;2023-10-31T18:28:13;99420.35;;;13.02;75.95
55755;BME280;41674;52.290;-1.474;2023-10-31T18:30:43;99423.08;;;13.22;75.03
55755;BME280;41674;52.290;-1.474;2023-10-31T18:33:13;99421.33;;;12.92;76.25
55755;BME280;41674;52.290;-1.474;2023-10-31T18:35:43;99421.20;;;13.00;76.42
55755;BME280;41674;52.290;-1.474;2023-10-31T18:38:12;99423.97;;;13.07;76.55
55755;BME280;41674;52.290;-1.474;2023-10-31T18:40:41;99422.28;;;12.94;76.98
55755;BME280;41674;52.290;-1.474;2023-10-31T18:43:11;99422.10;;;13.10;76.89
55755;BME280;41674;52.290;-1.474;2023-10-31T18:45:41;99424.05;;;13.24;76.55
55755;BME280;41674;52.290;-1.474;2023-10-31T18:48:10;99424.45;;;13.11;76.74
55755;BME280;41674;52.290;-1.474;2023-10-31T18:50:40;99421.67;;;13.13;77.45
55755;BME280;41674;52.290;-1.474;2023-10-31T18:53:09;99421.66;;;12.96;77.48
55755;BME280;41674;52.290;-1.474;2023-10-31T18:55:39;99425.56;;;13.09;76.77
55755;BME280;41674;52.290;-1.474;2023-10-31T18:58:09;99421.55;;;13.29;76.97
55755;BME280;41674;52.290;-1.474;2023-10-31T19:00:38;99420.34;;;13.06;75.67
55755;BME280;41674;52.290;-1.474;2023-10-31T19:03:08;99418.25;;;12.99;75.98
55755;BME280;41674;52.290;-1.474;2023-10-31T19:05:37;99417.38;;;12.83;76.75
55755;BME280;41674;52.290;-1.474;2023-10-31T19:08:07;99414.66;;;13.00;76.90
55755;BME280;41674;52.290;-1.474;2023-10-31T19:10:37;99410.83;;;12.70;77.48
55755;BME280;41674;52.290;-1.474;2023-10-31T19:13:06;99407.00;;;12.80;76.85
55755;BME280;41674;52.290;-1.474;2023-10-31T19:15:35;99399.75;;;12.61;77.90
55755;BME280;41674;52.290;-1.474;2023-10-31T19:18:05;99398.57;;;12.77;77.58
55755;BME280;41674;52.290;-1.474;2023-10-31T19:20:35;99398.76;;;12.88;77.13
55755;BME280;41674;52.290;-1.474;2023-10-31T19:23:04;99400.19;;;12.83;77.40
55755;BME280;41674;52.290;-1.474;2023-10-31T19:25:34;99400.20;;;13.04;77.65
55755;BME280;41674;52.290;-1.474;2023-10-31T19:28:04;99400.19;;;12.95;77.49
55755;BME280;41674;52.290;-1.474;2023-10-31T19:30:34;99399.57;;;13.06;77.24
55755;BME280;41674;52.290;-1.474;2023-10-31T19:33:03;99393.58;;;12.83;76.04
55755;BME280;41674;52.290;-1.474;2023-10-31T19:35:32;99390.67;;;13.26;74.69
55755;BME280;41674;52.290;-1.474;2023-10-31T19:38:02;99386.35;;;13.32;74.52
55755;BME280;41674;52.290;-1.474;2023-10-31T19:40:31;99382.60;;;13.46;75.18
55755;BME280;41674;52.290;-1.474;2023-10-31T19:43:01;99381.23;;;13.36;74.66
55755;BME280;41674;52.290;-1.474;2023-10-31T19:45:30;99377.05;;;13.21;74.58
55755;BME280;41674;52.290;-1.474;2023-10-31T19:48:00;99378.63;;;13.03;75.10
55755;BME280;41674;52.290;-1.474;2023-10-31T19:50:29;99375.77;;;12.93;75.73
55755;BME280;41674;52.290;-1.474;2023-10-31T19:52:59;99374.44;;;12.84;76.37
55755;BME280;41674;52.290;-1.474;2023-10-31T19:55:29;99370.27;;;13.12;76.68
55755;BME280;41674;52.290;-1.474;2023-10-31T19:57:59;99370.80;;;12.90;77.25
55755;BME280;41674;52.290;-1.474;2023-10-31T20:00:28;99367.85;;;13.18;77.40
55755;BME280;41674;52.290;-1.474;2023-10-31T20:02:57;99366.51;;;12.94;77.63
55755;BME280;41674;52.290;-1.474;2023-10-31T20:05:27;99367.81;;;12.83;78.19
55755;BME280;41674;52.290;-1.474;2023-10-31T20:07:57;99358.92;;;12.91;78.28
55755;BME280;41674;52.290;-1.474;2023-10-31T20:10:26;99355.41;;;12.78;78.98
55755;BME280;41674;52.290;-1.474;2023-10-31T20:12:56;99349.83;;;12.88;78.27
55755;BME280;41674;52.290;-1.474;2023-10-31T20:15:25;99350.11;;;13.02;77.96
55755;BME280;41674;52.290;-1.474;2023-10-31T20:17:55;99350.55;;;12.95;78.22
55755;BME280;41674;52.290;-1.474;2023-10-31T20:20:25;99350.13;;;12.92;78.50
55755;BME280;41674;52.290;-1.474;2023-10-31T20:22:54;99345.79;;;12.93;78.60
55755;BME280;41674;52.290;-1.474;2023-10-31T20:25:24;99345.88;;;13.00;79.49
55755;BME280;41674;52.290;-1.474;2023-10-31T20:27:53;99344.30;;;12.70;80.96
55755;BME280;41674;52.290;-1.474;2023-10-31T20:30:23;99339.21;;;12.69;81.65
55755;BME280;41674;52.290;-1.474;2023-10-31T20:32:53;99338.75;;;12.64;80.92
55755;BME280;41674;52.290;-1.474;2023-10-31T20:35:22;99334.43;;;12.87;80.89
55755;BME280;41674;52.290;-1.474;2023-10-31T20:37:51;99330.77;;;12.99;81.43
55755;BME280;41674;52.290;-1.474;2023-10-31T20:40:21;99328.69;;;12.94;81.70
55755;BME280;41674;52.290;-1.474;2023-10-31T20:42:51;99329.14;;;12.70;82.64
55755;BME280;41674;52.290;-1.474;2023-10-31T20:45:20;99331.29;;;12.57;83.81
55755;BME280;41674;52.290;-1.474;2023-10-31T20:47:50;99326.16;;;12.61;83.87
55755;BME280;41674;52.290;-1.474;2023-10-31T20:50:19;99330.09;;;12.26;85.58
55755;BME280;41674;52.290;-1.474;2023-10-31T20:52:49;99328.24;;;12.74;83.54
55755;BME280;41674;52.290;-1.474;2023-10-31T20:55:19;99327.02;;;13.05;82.35
55755;BME280;41674;52.290;-1.474;2023-10-31T20:57:49;99322.63;;;12.96;82.64
55755;BME280;41674;52.290;-1.474;2023-10-31T21:00:18;99320.45;;;12.44;84.17
55755;BME280;41674;52.290;-1.474;2023-10-31T21:02:47;99318.54;;;13.13;83.08
55755;BME280;41674;52.290;-1.474;2023-10-31T21:05:19;99320.87;;;12.91;83.25
55755;BME280;41674;52.290;-1.474;2023-10-31T21:07:47;99318.86;;;13.03;82.83
55755;BME280;41674;52.290;-1.474;2023-10-31T21:10:16;99316.74;;;12.95;82.97
55755;BME280;41674;52.290;-1.474;2023-10-31T21:12:46;99314.16;;;13.32;81.69
55755;BME280;41674;52.290;-1.474;2023-10-31T21:15:15;99315.84;;;13.31;81.72
55755;BME280;41674;52.290;-1.474;2023-10-31T21:17:45;99314.02;;;13.04;82.55
55755;BME280;41674;52.290;-1.474;2023-10-31T21:20:14;99316.34;;;13.02;82.50
55755;BME280;41674;52.290;-1.474;2023-10-31T21:22:44;99316.21;;;13.27;81.57
55755;BME280;41674;52.290;-1.474;2023-10-31T21:25:13;99316.05;;;12.90;82.68
55755;BME280;41674;52.290;-1.474;2023-10-31T21:27:43;99313.49;;;13.32;82.33
55755;BME280;41674;52.290;-1.474;2023-10-31T21:30:13;99311.36;;;12.78;83.48
55755;BME280;41674;52.290;-1.474;2023-10-31T21:32:42;99309.91;;;13.08;81.46
55755;BME280;41674;52.290;-1.474;2023-10-31T21:35:12;99312.45;;;13.31;81.64
55755;BME280;41674;52.290;-1.474;2023-10-31T21:37:41;99313.28;;;13.25;81.93
55755;BME280;41674;52.290;-1.474;2023-10-31T21:40:12;99307.63;;;13.39;81.42
55755;BME280;41674;52.290;-1.474;2023-10-31T21:42:41;99307.50;;;13.23;82.19
55755;BME280;41674;52.290;-1.474;2023-10-31T21:45:10;99300.22;;;13.14;82.11
55755;BME280;41674;52.290;-1.474;2023-10-31T21:47:40;99295.82;;;13.29;82.06
55755;BME280;41674;52.290;-1.474;2023-10-31T21:50:10;99292.27;;;13.48;81.40
55755;BME280;41674;52.290;-1.474;2023-10-31T21:52:39;99290.97;;;12.95;82.37
55755;BME280;41674;52.290;-1.474;2023-10-31T21:55:09;99290.11;;;13.33;82.15
55755;BME280;41674;52.290;-1.474;2023-10-31T21:57:39;99290.72;;;13.44;82.17
55755;BME280;41674;52.290;-1.474;2023-10-31T22:00:09;99287.11;;;13.12;82.44
55755;BME280;41674;52.290;-1.474;2023-10-31T22:02:37;99288.10;;;13.48;81.32